Tiempo atmosférico en la estación meteorológica de A Pobra de Trives, Ourense (840 m.)



Fecha
DESCASC
Temp. máxima en grados centígrados (hora)
DESCASC
Temp. mínima en grados centígrados (hora)
DESCASC
Temp. media en grados centígrados
DESCASC
Racha de viento máxima en m/sg (hora)
DESCASC
Velocidad máxima media en intervalos de 10 minutos(hora)
DESCASC
Precipitaciones diarias en mm
DESCASC
Precipitaciones de 00:00 a 06:00 en mm
DESCASC
Precipitaciones de 06:00 a 12:00 en mm
DESCASC
Precipitaciones de 12:00 a 18:00 en mm
DESCASC
Precipitaciones de 18:00 a 24:00 en mm
DESCASC
02-07-2020 20.2 (17:30) 10.1 (23:50) 15.2 9.72 (17:10) 3.61 (15:30) 0 0 0 0 0
01-07-2020 23.3 (16:10) 14.4 (05:20) 18.8 8.33 (12:10) 3.33 (11:40) 0.2 0 0.2 0 0
30-06-2020 29.7 (17:40) 11.5 (00:00) 20.6 12.5 (20:50) 5.28 (20:50) 0.8 0 0 0 0.8
29-06-2020 26 (17:20) 14.2 (00:00) 20.1 9.17 (16:00) 4.17 (21:40) 0 0 0 0 0
28-06-2020 23.4 (13:40) 10.9 (00:00) 17.1 8.06 (13:50) 3.33 (13:50) 0 0 0 0 0
27-06-2020 22.5 (16:00) 14.8 (00:00) 18.7 8.06 (19:50) 3.89 (16:40) 0 0 0 0 0
26-06-2020 23.3 (17:10) 10.6 (00:00) 16.9 9.44 (16:30) 3.89 (17:20) 0 0 0 0 0
25-06-2020 25.9 (18:10) 13.8 (00:00) 19.8 9.72 (20:00) 4.44 (18:50) 0 0 0 0 0
24-06-2020 30.4 (17:00) 15.1 (00:00) 22.8 10.83 (19:40) 5.28 (19:40) 0.4 0 0 0 0.4
23-06-2020 33.7 (18:00) 13.7 (00:00) 23.7 7.22 (19:00) 3.61 (19:00) 0 0 0 0 0
22-06-2020 31.1 (18:50) 10.2 (00:00) 20.7 5.83 (17:30) 2.78 (17:20) 0 0 0 0 0
21-06-2020 23.7 (18:40) 7.7 (00:00) 15.7 8.33 (15:30) 3.89 (15:40) 0 0 0 0 0
20-06-2020 24.3 (17:20) 7.6 (00:00) 15.9 9.44 (18:00) 4.17 (18:20) 0 0 0 0 0
19-06-2020 23 (19:10) 6.6 (00:00) 14.8 8.61 (15:10) 3.61 (17:40) 0 0 0 0 0
18-06-2020 21.4 (18:10) 7.7 (00:00) 14.5 9.17 (16:00) 3.61 (17:30) 0 0 0 0 0
17-06-2020 18.4 (15:10) 9 (00:00) 13.7 8.61 (16:20) 4.17 (16:50) 0 0 0 0 0
16-06-2020 18.7 (17:20) 10.3 (00:00) 14.5 11.39 (12:50) 5 (12:50) 0 0 0 0 0
15-06-2020 16.4 (18:20) 9.2 (00:00) 12.8 7.78 (18:40) 3.33 (18:40) 0 0 0 0 0
14-06-2020 16.7 (15:20) 5.9 (00:00) 11.3 7.5 (13:10) 3.33 (16:40) 0 0 0 0 0
13-06-2020 16.3 (16:30) 8.5 (00:00) 12.4 11.39 (13:50) 5.28 (16:10) 0.4 0 0.2 0.2 0
12-06-2020 14.7 (16:20) 7.3 (00:00) 11 15.28 (00:10) 6.94 (00:10) 26.4 4.6 2.6 15.2 4
11-06-2020 15.1 (12:30) 7.7 (00:00) 11.4 13.61 (19:50) 6.67 (23:59) 2.6 0 1.2 0.2 1.2
10-06-2020 21.7 (18:10) 5 (00:00) 13.4 9.72 (17:50) 3.89 (15:40) 0 0 0 0 0
09-06-2020 21.2 (17:30) 3.9 (00:00) 12.6 7.78 (18:50) 3.61 (18:30) 0 0 0 0 0
08-06-2020 19 (18:50) 5.3 (07:10) 12.2 8.33 (15:50) 3.89 (18:10) 0 0 0 0 0
07-06-2020 17.1 (17:00) 7.7 (00:00) 12.4 10.56 (19:20) 4.17 (17:30) 0 0 0 0 0
06-06-2020 19.8 (17:00) 9.4 (00:00) 14.6 9.72 (16:40) 4.44 (13:40) 0 0 0 0 0
05-06-2020 23.2 (18:10) 5.1 (00:00) 14.2 8.33 (17:40) 3.61 (18:40) 0 0 0 0 0
04-06-2020 18.2 (17:50) 9 (00:00) 13.6 8.33 (19:20) 3.33 (13:40) 0.2 0 0.2 0 0

Gráficas

Temp. máximas Temp. mínimas Temp. medias Precipitaciones Rachas de viento máximas Velocidades máximas media en intervalos de 10 minutos

Datos horarios

Fecha y hora oficial Temperatura (ºC) Velocidad del viento (km/h) Dirección del viento Racha (km/h) Dirección de racha Precipitación (mm) Presión (hPa) Tendencia (hPa) Humedad (%)
2020-07-03 23:00:00 15.3 9 Oeste 22 Sudoeste 0 928.3 1.5 69
2020-07-03 22:00:00 16.9 8 Oeste 21 Oeste 0 927.3 0.7 58
2020-07-03 21:00:00 19.4 9 Oeste 23 Oeste 0 927 0.5 47
2020-07-03 20:00:00 21.2 11 Oeste 26 Noroeste 0 926.8 0.1 41
2020-07-03 19:00:00 24.5 9 Noroeste 24 Oeste 0 926.6 -0.3 31
2020-07-03 18:00:00 24.8 11 Oeste 26 Oeste 0 926.5 -0.6 29
2020-07-03 17:00:00 24.2 9 Noroeste 25 Oeste 0 926.7 -0.7 31
2020-07-03 16:00:00 23.6 10 Oeste 23 Oeste 0 926.9 -0.6 34
2020-07-03 15:00:00 22.9 8 Oeste 23 Noroeste 0 927.1 -0.6 45
2020-07-03 14:00:00 21.4 7 Oeste 21 Oeste 0 927.4 -- 50
2020-07-03 13:00:00 19.9 6 Noroeste 14 Norte 0 927.5 -- 51
2020-07-03 12:00:00 18.1 4 Este 13 Este 0 927.7 -- 54
2020-07-03 11:00:00 15.2 5 Este 13 Sudeste 0 927.5 -- 60
2020-07-03 10:00:00 13.3 7 Nordeste 13 Este 0 927.3 -- 74
2020-07-03 09:00:00 10.5 3 Este 8 Noroeste 0 927.1 -- 81
2020-07-03 08:00:00 6.8 5 Noroeste 11 Noroeste 0 927 -- 91
2020-07-03 07:00:00 5.5 6 Noroeste 14 Noroeste 0 927 -- 92
2020-07-03 06:00:00 5.8 6 Noroeste 12 Oeste 0 926.5 -- 91
2020-07-03 05:00:00 6.3 6 Noroeste 15 Oeste 0 926.5 -- 91
2020-07-03 04:00:00 7.1 6 Noroeste 15 Oeste 0 926.5 -- 91
2020-07-03 03:00:00 8.3 4 Noroeste 28 Oeste 0 927 -- 88
2020-07-03 02:00:00 9.1 11 Oeste 25 Oeste 0 927 -- 87
2020-07-03 01:00:00 9.4 10 Oeste 23 Oeste 0 926.8 -- 85
2020-07-03 00:00:00 10.1 9 Oeste 23 Oeste 0 926.9 -- 83
2020-07-02 23:00:00 11.3 9 Oeste 26 Oeste 0 926.5 -- 79
2020-07-02 22:00:00 12.5 13 Oeste 29 Oeste 0 925.8 -- 72
2020-07-02 21:00:00 14 10 Noroeste 30 Noroeste 0 925.5 -- 66
2020-07-02 20:00:00 15.6 12 Oeste 33 Oeste 0 925.1 -- 62
2020-07-02 19:00:00 17.6 13 Noroeste 31 Oeste 0 924.9 -- 54
2020-07-02 18:00:00 18 8 Noroeste 35 Oeste 0 924.9 -- 52
2020-07-02 17:00:00 19.3 13 Oeste 28 Oeste 0 924.6 -- 46
2020-07-02 16:00:00 18.6 11 Noroeste 27 Oeste 0 924.9 -- 50
2020-07-02 15:00:00 19.2 10 Noroeste 30 Oeste 0 924.9 -- 49
2020-07-02 14:00:00 18.4 10 Noroeste 24 Noroeste 0 924.8 -- 51
2020-07-02 13:00:00 18.2 9 Oeste 24 Oeste 0 924.8 -- 54
2020-07-02 12:00:00 15.6 12 Oeste 23 Noroeste 0 924.7 -- 64
2020-07-02 11:00:00 11.9 7 Noroeste 15 Noroeste 0 924.4 -- 84
2020-07-02 10:00:00 11.3 4 Noroeste 14 Oeste 0 923.8 -- 88
2020-07-02 09:00:00 10.9 5 Oeste 15 Oeste 0 923.4 -- 89
2020-07-02 08:00:00 10.8 6 Oeste 20 Oeste 0 923.2 -- 88
2020-07-02 07:00:00 11.2 4 Oeste 12 Sudoeste 0 922.6 -- 90
2020-07-02 06:00:00 11.5 5 Oeste 16 Noroeste 0 922.4 -- 88
2020-07-02 05:00:00 12.6 5 Oeste 15 Oeste 0 922.2 -- 88
2020-07-02 04:00:00 13.3 6 Oeste 12 Oeste 0 922.4 -- 87
2020-07-02 03:00:00 13.4 5 Oeste 18 Noroeste 0 922.6 -- 88
2020-07-02 02:00:00 13.3 6 Noroeste 15 Oeste 0 922.7 -- 87
2020-07-02 01:00:00 14.1 6 Oeste 17 Oeste 0 922.9 -- 83
2020-07-02 00:00:00 14.4 6 Oeste 15 Oeste 0 922.9 -- 83
2020-07-01 23:00:00 14.9 6 Oeste 14 Oeste 0 922.5 -- 81
2020-07-01 22:00:00 16.7 5 Oeste 17 Oeste 0 921.9 -- 72
2020-07-01 21:00:00 18.3 6 Oeste 23 Noroeste 0 921.8 -- 67
2020-07-01 20:00:00 19.7 10 Noroeste 23 Noroeste 0 921.7 -- 62
2020-07-01 19:00:00 22.3 10 Oeste 28 Oeste 0 921.5 -- 54
2020-07-01 18:00:00 22.9 12 Oeste 30 Oeste 0 921.7 -- 55
2020-07-01 17:00:00 21.9 12 Oeste 27 Oeste 0 921.8 -- 58
2020-07-01 16:00:00 23.1 10 Oeste 28 Noroeste 0 921.8 -- 58
2020-07-01 15:00:00 22.3 10 Oeste 27 Noroeste 0 921.7 -- 57
2020-07-01 14:00:00 20.7 10 Noroeste 26 Oeste 0 921.8 -- 63
2020-07-01 13:00:00 19.5 8 Noroeste 30 Noroeste 0 921.7 -- 67
2020-07-01 12:00:00 21.7 9 Noroeste 28 Noroeste 0.2 921.3 -- 63
2020-07-01 11:00:00 21.1 10 Noroeste 20 Noroeste 0 920.9 -- 66
2020-07-01 10:00:00 19.8 7 Noroeste 17 Noroeste 0 920.7 -- 71
2020-07-01 09:00:00 16.9 5 Noroeste 11 Noroeste 0 920.5 -- 87
2020-07-01 08:00:00 15.3 5 Oeste 14 Noroeste 0 920.3 -- 92
2020-07-01 07:00:00 15.3 8 Oeste 17 Oeste 0 919.9 -- 94
2020-07-01 06:00:00 14.8 5 Sudoeste 16 Oeste 0 919.6 -- 93
2020-07-01 05:00:00 14.7 10 Oeste 18 Oeste 0 919.3 -- 93
2020-07-01 04:00:00 15.8 8 Oeste 16 Noroeste 0 919.3 -- 93
2020-07-01 03:00:00 16.5 7 Noroeste 16 Oeste 0 919.5 -- 91
2020-07-01 02:00:00 17.5 10 Oeste 20 Oeste 0 919.9 -- 89
2020-07-01 01:00:00 18.1 8 Oeste 19 Oeste 0 920 -- 86
2020-07-01 00:00:00 18.6 8 Oeste 17 Oeste 0 919.9 -- 86
2020-06-30 23:00:00 18.8 8 Oeste 21 Sudoeste 0 919.6 -- 86
2020-06-30 22:00:00 19.8 12 Oeste 26 Oeste 0.4 918.9 -- 87
2020-06-30 21:00:00 19.9 10 Oeste 45 Oeste 0.4 918.8 -- 65
2020-06-30 20:00:00 25 5 Oeste 25 Oeste 0 918.2 -- 57
2020-06-30 19:00:00 29.1 13 Oeste 32 Oeste 0 917.9 -- 44
2020-06-30 18:00:00 28.5 10 Oeste 24 Noroeste 0 918.2 -- 45
2020-06-30 17:00:00 28.1 10 Oeste 23 Oeste 0 918.4 -- 46
2020-06-30 16:00:00 27.2 7 Oeste 21 Oeste 0 918.8 -- 50
2020-06-30 15:00:00 25.7 8 Oeste 19 Oeste 0 919.1 -- 54
2020-06-30 14:00:00 25.7 4 Sudeste 14 Norte 0 919.4 -- 48
2020-06-30 13:00:00 26 5 Este 16 Sudeste 0 919.6 -- 46
2020-06-30 12:00:00 23.8 8 Nordeste 17 Nordeste 0 920 -- 51
2020-06-30 11:00:00 20.1 6 Nordeste 14 Nordeste 0 920.3 -- 59
2020-06-30 10:00:00 18.6 4 Nordeste 10 Sudeste 0 920.6 -- 60
2020-06-30 09:00:00 17.9 3 Nordeste 8 Noroeste 0 920.6 -- 61
2020-06-30 08:00:00 13.7 4 Noroeste 10 Noroeste 0 920.6 -- 83
2020-06-30 07:00:00 11.5 6 Noroeste 11 Noroeste 0 920.6 -- 85
2020-06-30 06:00:00 11.8 8 Noroeste 13 Noroeste 0 920.4 -- 83
2020-06-30 05:00:00 12.4 6 Noroeste 12 Noroeste 0 920.7 -- 79
2020-06-30 04:00:00 13 7 Noroeste 19 Noroeste 0 921.1 -- 75
2020-06-30 03:00:00 13.4 10 Noroeste 19 Noroeste 0 921.5 -- 73
2020-06-30 02:00:00 14.2 9 Noroeste 23 Oeste 0 922.1 -- 67
2020-06-30 01:00:00 15 7 Noroeste 23 Oeste 0 922.4 -- 61
2020-06-30 00:00:00 16.4 11 Oeste 27 Oeste 0 922.6 -- 58
2020-06-29 23:00:00 17.5 10 Oeste 30 Oeste 0 922.6 -- 52
2020-06-29 22:00:00 18.9 10 Oeste 30 Oeste 0 922.4 -- 45
2020-06-29 21:00:00 20.8 8 Oeste 24 Oeste 0 922.5 -- 43
2020-06-29 20:00:00 22.9 11 Oeste 23 Oeste 0 922.4 -- 41
2020-06-29 19:00:00 25.8 13 Oeste 26 Oeste 0 922.6 -- 37
2020-06-29 18:00:00 25.9 12 Oeste 27 Oeste 0 923 -- 41
2020-06-29 17:00:00 25.6 12 Oeste 29 Oeste 0 923.2 -- 44
2020-06-29 16:00:00 25.1 14 Oeste 33 Oeste 0 923.5 -- 47
2020-06-29 15:00:00 24.6 12 Oeste 26 Noroeste 0 923.9 -- 51
2020-06-29 14:00:00 24.2 11 Oeste 23 Oeste 0 924.1 -- 57
2020-06-29 13:00:00 23.6 5 Nordeste 12 Noroeste 0 924.4 -- 53
2020-06-29 12:00:00 21.7 8 Este 16 Este 0 924.6 -- 58
2020-06-29 11:00:00 19.7 6 Este 15 Este 0 924.6 -- 65
2020-06-29 10:00:00 16.3 4 Sudeste 8 Sudeste 0 924.7 -- 79
2020-06-29 09:00:00 15.5 3 Noroeste 10 Norte 0 924.7 -- 85
2020-06-29 08:00:00 14.3 6 Oeste 13 Noroeste 0 924.7 -- 90
2020-06-29 07:00:00 14.4 6 Oeste 18 Oeste 0 924.6 -- 90
2020-06-29 06:00:00 14.4 6 Oeste 19 Oeste 0 924.5 -- 91
2020-06-29 05:00:00 14.4 9 Oeste 19 Oeste 0 924.5 -- 91
2020-06-29 04:00:00 14.8 8 Noroeste 16 Noroeste 0 924.7 -- 89
2020-06-29 03:00:00 15.6 6 Oeste 15 Oeste 0 924.8 -- 86
2020-06-29 02:00:00 16 5 Oeste 14 Oeste 0 925.3 -- 85
2020-06-29 01:00:00 16.4 5 Oeste 14 Noroeste 0 925.6 -- 83
2020-06-29 00:00:00 16.9 5 Oeste 12 Oeste 0 925.8 -- 82
2020-06-28 23:00:00 17.2 5 Oeste 15 Oeste 0 925.8 -- 79
2020-06-28 22:00:00 17.7 4 Oeste 17 Norte 0 925.5 -- 78
2020-06-28 21:00:00 18.2 6 Oeste 17 Oeste 0 925.5 -- 80
2020-06-28 20:00:00 19.4 6 Oeste 27 Oeste 0 925.4 -- 76
2020-06-28 19:00:00 20.4 6 Oeste 23 Oeste 0 925.4 -- 67
2020-06-28 18:00:00 22.2 9 Noroeste 21 Sudoeste 0 925.4 -- 62
2020-06-28 17:00:00 23.2 8 Oeste 24 Sudoeste 0 925.4 -- 57
2020-06-28 16:00:00 22.3 7 Oeste 25 Oeste 0 925.8 -0.2 60
2020-06-28 15:00:00 21.4 9 Oeste 25 Oeste 0 926 -- 61
2020-06-28 14:00:00 21.9 10 Noroeste 29 Oeste 0 926 -- 61
2020-06-28 13:00:00 21.3 9 Oeste 19 Noroeste 0 926 -- 66
2020-06-28 12:00:00 19.6 4 Noroeste 15 Noroeste 0 926 -- 69
2020-06-28 11:00:00 18.3 7 Noroeste 15 Oeste 0 925.9 -- 70
2020-06-28 10:00:00 16.4 3 Sudeste 7 Este 0 925.8 -- 78
2020-06-28 09:00:00 14.2 4 Noroeste 8 Noroeste 0 925.4 -- 88
2020-06-28 08:00:00 12.6 4 Noroeste 12 Noroeste 0 925.3 -- 91
2020-06-28 07:00:00 10.9 2 Oeste 12 Noroeste 0 924.9 -- 91
2020-06-28 06:00:00 11.2 6 Noroeste 9 Oeste 0 924.9 -- 90
2020-06-28 05:00:00 12.1 2 Noroeste 14 Oeste 0 924.7 -- 88
2020-06-28 04:00:00 12.7 6 Oeste 12 Oeste 0 924.9 -- 89
2020-06-28 03:00:00 12.8 4 Oeste 14 Oeste 0 924.9 -- 87
2020-06-28 02:00:00 13.7 8 Oeste 17 Oeste 0 925 -- 88
2020-06-28 01:00:00 13.7 8 Oeste 17 Sudoeste 0 925.1 -- 87
2020-06-28 00:00:00 14.8 5 Oeste 22 Oeste 0 924.8 -- 82
2020-06-27 23:00:00 15.7 12 Oeste 26 Oeste 0 924.5 -- 82
2020-06-27 22:00:00 17 6 Oeste 23 Oeste 0 924.1 -- 78
2020-06-27 21:00:00 18.5 8 Oeste 23 Oeste 0 923.7 -- 72
2020-06-27 20:00:00 20.2 10 Oeste 29 Noroeste 0 923.6 -- 66
2020-06-27 19:00:00 21.1 9 Oeste 27 Sudoeste 0 923.5 -- 65
2020-06-27 18:00:00 20.8 12 Oeste 27 Oeste 0 923.6 -- 67
2020-06-27 17:00:00 19.8 9 Oeste 28 Oeste 0 923.5 -- 70
2020-06-27 16:00:00 22.3 11 Oeste 27 Oeste 0 923.5 -- 59
2020-06-27 15:00:00 20.8 9 Oeste 25 Oeste 0 923.5 -- 66
2020-06-27 14:00:00 20.4 11 Oeste 23 Oeste 0 923.6 -- 65
2020-06-27 13:00:00 19.5 6 Sudoeste 24 Sudoeste 0 923.5 -- 67
2020-06-27 12:00:00 19.9 9 Oeste 23 Oeste 0 923.2 -- 66
2020-06-27 11:00:00 19.4 9 Oeste 24 Oeste 0 923 -- 66
2020-06-27 10:00:00 17.7 8 Oeste 21 Noroeste 0 922.8 -- 74
2020-06-27 09:00:00 16.2 10 Oeste 20 Sudoeste 0 922.3 -- 76
2020-06-27 08:00:00 15.4 7 Oeste 19 Oeste 0 922 -- 80
2020-06-27 07:00:00 15.1 4 Oeste 13 Oeste 0 921.6 -- 82
2020-06-27 06:00:00 15 6 Noroeste 16 Sudoeste 0 921.7 -- 83
2020-06-27 05:00:00 14.9 8 Oeste 18 Sudoeste 0 921.7 -- 83
2020-06-27 04:00:00 15.2 7 Oeste 26 Oeste 0 921.6 -- 81
2020-06-27 03:00:00 15.5 9 Oeste 22 Oeste 0 921.8 -- 82
2020-06-27 02:00:00 15.5 6 Oeste 16 Oeste 0 921.8 -- 80
2020-06-27 01:00:00 15.2 6 Oeste 18 Oeste 0 921.8 -- 83
2020-06-27 00:00:00 15.8 6 Oeste 22 Oeste 0 921.9 -- 83
2020-06-26 23:00:00 16.4 7 Oeste 17 Oeste 0 921.5 -- 76
2020-06-26 22:00:00 16.5 6 Oeste 18 Oeste 0 921.1 -- 77
2020-06-26 21:00:00 17.2 9 Oeste 29 Oeste 0 921 -- 74
2020-06-26 20:00:00 18.6 10 Oeste 26 Oeste 0 921 -- 69
2020-06-26 19:00:00 20.8 12 Oeste 29 Oeste 0 920.6 -- 57
2020-06-26 18:00:00 21.2 10 Oeste 30 Sudoeste 0 920.6 -- 55
2020-06-26 17:00:00 23.2 11 Oeste 34 Oeste 0 920.5 -- 48
2020-06-26 16:00:00 20.7 13 Oeste 27 Oeste 0 920.9 -- 51
2020-06-26 15:00:00 21.8 10 Oeste 27 Noroeste 0 920.8 -- 48
2020-06-26 14:00:00 21.9 11 Oeste 25 Noroeste 0 920.8 -- 43
2020-06-26 13:00:00 20 11 Noroeste 28 Noroeste 0 921 -- 55
2020-06-26 12:00:00 19 10 Noroeste 25 Oeste 0 920.9 -- 61
2020-06-26 11:00:00 16.9 5 Noroeste 13 Noroeste 0 920.8 -- 67
2020-06-26 10:00:00 14.9 4 Noroeste 13 Oeste 0 920.8 -- 79
2020-06-26 09:00:00 14 6 Oeste 17 Oeste 0 920.8 -- 85
2020-06-26 08:00:00 12 4 Oeste 14 Oeste 0 920.6 -- 92
2020-06-26 07:00:00 10.6 6 Noroeste 14 Oeste 0 920.4 -- 92
2020-06-26 06:00:00 11.1 7 Oeste 16 Oeste 0 920.4 -- 92
2020-06-26 05:00:00 11.3 8 Noroeste 13 Oeste 0 920.3 -- 92
2020-06-26 04:00:00 12.5 6 Oeste 17 Oeste 0 920.5 -- 90
2020-06-26 03:00:00 13.2 7 Oeste 15 Oeste 0 921 -- 89
2020-06-26 02:00:00 13.8 6 Oeste 17 Oeste 0 921.2 -- 89
2020-06-26 01:00:00 14.7 9 Oeste 21 Oeste 0 921.4 -- 86
2020-06-26 00:00:00 15.7 6 Oeste 17 Oeste 0 921.5 -- 84
2020-06-25 23:00:00 16.5 7 Oeste 18 Oeste 0 921.5 -- 84
2020-06-25 22:00:00 16.9 9 Oeste 24 Oeste 0 921.1 -- 82
2020-06-25 21:00:00 18.6 12 Oeste 28 Oeste 0 920.8 -- 76
2020-06-25 20:00:00 21.5 13 Oeste 35 Oeste 0 920.2 -- 66
2020-06-25 19:00:00 24.9 14 Oeste 33 Noroeste 0 919.9 -- 52
2020-06-25 18:00:00 25.8 12 Oeste 30 Noroeste 0 919.8 -- 51
2020-06-25 17:00:00 25.5 10 Noroeste 27 Noroeste 0 920 -- 54
2020-06-25 16:00:00 25.3 14 Oeste 32 Oeste 0 920.4 -- 55
2020-06-25 15:00:00 25.2 14 Oeste 29 Oeste 0 920.6 -- 54
2020-06-25 14:00:00 25.4 12 Oeste 22 Oeste 0 920.7 -- 54
2020-06-25 13:00:00 24.7 5 Este 14 Este 0 920.7 -- 58
2020-06-25 12:00:00 22.6 6 Sudeste 14 Sudeste 0 920.9 -- 62
2020-06-25 11:00:00 19.8 5 Sudeste 15 Sudeste 0 921.1 -- 75
2020-06-25 10:00:00 19.5 7 Este 13 Este 0 921.1 -- 77
2020-06-25 09:00:00 17.7 5 Noroeste 11 Oeste 0 920.9 -- 82
2020-06-25 08:00:00 15.2 4 Noroeste 10 Noroeste 0 920.8 -- 92
2020-06-25 07:00:00 13.8 5 Noroeste 11 Noroeste 0 920.7 -- 91
2020-06-25 06:00:00 14 6 Noroeste 11 Norte 0 920.7 -- 90
2020-06-25 05:00:00 14 5 Noroeste 11 Noroeste 0 920.8 -- 91
2020-06-25 04:00:00 14.3 5 Noroeste 11 Noroeste 0 921 -- 90
2020-06-25 03:00:00 15.1 6 Noroeste 12 Noroeste 0 921.2 -- 89
2020-06-25 02:00:00 15.1 5 Noroeste 12 Noroeste 0 921.6 -- 90
2020-06-25 01:00:00 15.9 4 Oeste 8 Sudeste 0 921.9 -- 86
2020-06-25 00:00:00 16.9 3 Sur 19 Este 0.4 922 -- 84
2020-06-24 23:00:00 17.5 8 Este 19 Este 0 922.4 -- 79
2020-06-24 22:00:00 18.2 8 Este 30 Este 0 921.9 -- 76
2020-06-24 21:00:00 19.3 13 Este 33 Este 0 922.6 -- 69
2020-06-24 20:00:00 22 13 Este 39 Este 0 922.3 -- 59
2020-06-24 19:00:00 29.6 8 Noroeste 29 Oeste 0 920.5 -- 43
2020-06-24 18:00:00 29.7 12 Noroeste 33 Oeste 0 920.1 -- 44
2020-06-24 17:00:00 30.3 12 Oeste 33 Oeste 0 919.8 -- 40
2020-06-24 16:00:00 29.6 12 Oeste 25 Oeste 0 920.3 -- 45
2020-06-24 15:00:00 29 10 Oeste 23 Oeste 0 920.5 -- 52
2020-06-24 14:00:00 26.7 8 Noroeste 22 Oeste 0 920.8 -- 57
2020-06-24 13:00:00 28.8 3 Noroeste 11 Oeste 0 920.7 -- 44
2020-06-24 12:00:00 26.9 4 Este 14 Nordeste 0 920.5 -- 41
2020-06-24 11:00:00 25.1 4 Nordeste 11 Nordeste 0 920.5 -- 49
2020-06-24 10:00:00 22.9 4 Noroeste 10 Noroeste 0 920.8 -- 58
2020-06-24 09:00:00 20 5 Noroeste 11 Noroeste 0 920.8 -- 68
2020-06-24 08:00:00 16.4 8 Noroeste 13 Noroeste 0 920.8 -- 79
2020-06-24 07:00:00 15.1 10 Noroeste 15 Noroeste 0 920.6 -- 83
2020-06-24 06:00:00 15.6 8 Noroeste 13 Noroeste 0 920.6 -- 82
2020-06-24 05:00:00 16.3 9 Noroeste 12 Noroeste 0 920.8 -- 82
2020-06-24 04:00:00 16.9 8 Noroeste 17 Oeste 0 920.8 -- 81
2020-06-24 03:00:00 17.6 7 Noroeste 18 Noroeste 0 921 -- 79
2020-06-24 02:00:00 18.5 9 Noroeste 15 Oeste 0 921.2 -- 80
2020-06-24 01:00:00 19.4 8 Noroeste 15 Noroeste 0 921.4 -- 78
2020-06-24 00:00:00 20.8 8 Oeste 14 Oeste 0 921.5 -- 71
2020-06-23 23:00:00 22.9 6 Oeste 23 Sudoeste 0 921.6 -- 60
2020-06-23 22:00:00 24.3 11 Oeste 21 Oeste 0 920.9 -- 49
2020-06-23 21:00:00 26.8 8 Oeste 22 Sudoeste 0 920.5 -- 41
2020-06-23 20:00:00 28.9 11 Oeste 22 Oeste 0 920.2 -- 37
2020-06-23 19:00:00 28.8 13 Oeste 26 Oeste 0 920.2 -- 34
2020-06-23 18:00:00 33.5 6 Oeste 17 Oeste 0 920.2 -- 24
2020-06-23 17:00:00 33.3 4 Sudeste 20 Oeste 0 920.5 -- 22
2020-06-23 16:00:00 32.5 9 Oeste 20 Noroeste 0 920.7 -- 24
2020-06-23 15:00:00 31 6 Este 13 Este 0 921.3 -- 30
2020-06-23 14:00:00 29.9 5 Sudeste 13 Este 0 921.7 -- 32
2020-06-23 13:00:00 28.2 5 Este 17 Sudeste 0 922.1 -- 31
2020-06-23 12:00:00 26.6 8 Este 15 Nordeste 0 922.3 -- 37
2020-06-23 11:00:00 24.5 7 Este 15 Este 0 922.6 -- 40
2020-06-23 10:00:00 22.4 3 Norte 12 Nordeste 0 922.9 -- 49
2020-06-23 09:00:00 19.6 5 Nordeste 10 Nordeste 0 923 -- 60
2020-06-23 08:00:00 15.8 4 Noroeste 13 Noroeste 0 922.9 -- 79
2020-06-23 07:00:00 13.7 9 Noroeste 14 Noroeste 0 922.8 -- 85
2020-06-23 06:00:00 14.2 9 Noroeste 13 Noroeste 0 922.8 -- 86
2020-06-23 05:00:00 14.6 6 Noroeste 11 Noroeste 0 922.9 -- 87
2020-06-23 04:00:00 15.2 8 Noroeste 12 Noroeste 0 923.4 -- 87
2020-06-23 03:00:00 16.4 8 Noroeste 13 Noroeste 0 923.9 -- 83
2020-06-23 02:00:00 17 9 Noroeste 13 Noroeste 0 923.9 -- 82
2020-06-23 01:00:00 18.1 6 Oeste 17 Noroeste 0 924.4 -- 78
2020-06-23 00:00:00 19.6 9 Noroeste 18 Oeste 0 924.8 -- 73
2020-06-22 23:00:00 21.5 8 Oeste 19 Oeste 0 924.7 -- 64
2020-06-22 22:00:00 23.1 7 Oeste 13 Sudoeste 0 924.3 -- 60
2020-06-22 21:00:00 25.7 2 Oeste 19 Noroeste 0 924 -- 51
2020-06-22 20:00:00 27.8 8 Oeste 17 Oeste 0 924 -- 45
2020-06-22 19:00:00 31.1 4 Noroeste 18 Noroeste 0 924.3 -- 29
2020-06-22 18:00:00 30.5 6 Noroeste 21 Noroeste 0 924.8 -- 35
2020-06-22 17:00:00 30 6 Oeste 15 Sudoeste 0 925.3 -- 35
2020-06-22 16:00:00 28.9 9 Este 17 Este 0 925.9 -- 37
2020-06-22 15:00:00 28.1 5 Este 17 Este 0 926.7 -- 40
2020-06-22 14:00:00 26.6 6 Nordeste 15 Sudeste 0 927.4 -- 43
2020-06-22 13:00:00 25 8 Este 20 Este 0 927.8 -- 48
2020-06-22 12:00:00 23.2 6 Este 17 Nordeste 0 927.9 -- 58
2020-06-22 11:00:00 20.9 7 Este 16 Nordeste 0 928.2 -- 63
2020-06-22 10:00:00 19 4 Este 11 Nordeste 0 928.5 -- 70
2020-06-22 09:00:00 16.1 2 Norte 7 Noroeste 0 928.7 -- 80
2020-06-22 08:00:00 12.8 4 Norte 12 Noroeste 0 928.8 -- 92
2020-06-22 07:00:00 10.3 6 Noroeste 12 Noroeste 0 928.9 -- 92
2020-06-22 06:00:00 10.7 6 Noroeste 12 Noroeste 0 929.2 -- 92
2020-06-22 05:00:00 11.1 9 Noroeste 13 Noroeste 0 929.5 -- 92
2020-06-22 04:00:00 11.7 6 Noroeste 12 Noroeste 0 929.7 -- 91
2020-06-22 03:00:00 12.6 9 Noroeste 12 Noroeste 0 930.1 -- 90
2020-06-22 02:00:00 13.7 6 Noroeste 15 Oeste 0 930.4 -- 89
2020-06-22 01:00:00 14.8 8 Oeste 17 Oeste 0 930.6 -- 88
2020-06-22 00:00:00 15.7 6 Oeste 19 Oeste 0 930.8 -- 83
2020-06-21 23:00:00 16.2 6 Oeste 13 Oeste 0 930.8 -- 79
2020-06-21 22:00:00 17.9 5 Oeste 17 Oeste 0 930.3 -- 71
2020-06-21 21:00:00 19.3 6 Oeste 21 Oeste 0 930 -- 66
2020-06-21 20:00:00 20 9 Noroeste 18 Noroeste 0 929.8 -- 62
2020-06-21 19:00:00 22.5 7 Oeste 25 Oeste 0 929.9 -- 54
2020-06-21 18:00:00 23 12 Noroeste 26 Oeste 0 930.1 -- 53
2020-06-21 17:00:00 23.2 9 Oeste 25 Oeste 0 930.5 -- 54
2020-06-21 16:00:00 22.8 10 Oeste 30 Oeste 0 930.7 -- 56
2020-06-21 15:00:00 22.8 10 Noroeste 26 Noroeste 0 930.7 -- 53
2020-06-21 14:00:00 22.4 9 Noroeste 23 Oeste 0 930.9 -- 56
2020-06-21 13:00:00 20.1 7 Nordeste 17 Este 0 930.8 -- 61
2020-06-21 12:00:00 17.7 6 Este 17 Este 0 930.8 -- 68
2020-06-21 11:00:00 17.1 6 Nordeste 13 Norte 0 930.8 -- 71
2020-06-21 10:00:00 14.5 5 Noroeste 12 Oeste 0 930.9 -- 80
2020-06-21 09:00:00 12.9 5 Oeste 18 Oeste 0 930.6 -- 84
2020-06-21 08:00:00 11.3 7 Noroeste 15 Oeste 0 929.8 -- 90
2020-06-21 07:00:00 9.6 7 Oeste 16 Oeste 0 929.5 -- 92
2020-06-21 06:00:00 8.2 8 Noroeste 17 Noroeste 0 929.3 -- 91
2020-06-21 05:00:00 7.9 7 Noroeste 12 Noroeste 0 928.9 -- 84
2020-06-21 04:00:00 8.7 5 Oeste 13 Noroeste 0 929.1 -- 83
2020-06-21 03:00:00 9.5 7 Noroeste 14 Noroeste 0 929.3 -- 83
2020-06-21 02:00:00 10.6 8 Oeste 22 Oeste 0 929.4 -- 79
2020-06-21 01:00:00 11.6 12 Oeste 22 Oeste 0 929.7 -- 75
2020-06-21 00:00:00 12.9 10 Oeste 28 Oeste 0 929.4 -- 76
2020-06-20 23:00:00 14.4 14 Oeste 31 Oeste 0 928.7 -- 76
2020-06-20 22:00:00 16.2 14 Oeste 27 Oeste 0 928.1 -- 69
2020-06-20 21:00:00 18.3 14 Oeste 28 Oeste 0 928 -- 63
2020-06-20 20:00:00 20.7 12 Oeste 30 Oeste 0 927.7 -- 55
2020-06-20 19:00:00 23.4 13 Oeste 34 Noroeste 0 927.2 -- 46
2020-06-20 18:00:00 24.2 12 Oeste 34 Oeste 0 927.1 -- 43
2020-06-20 17:00:00 23.9 13 Noroeste 33 Oeste 0 927 -- 41
2020-06-20 16:00:00 23.6 11 Noroeste 28 Sudoeste 0 927.2 -- 46
2020-06-20 15:00:00 23 12 Noroeste 28 Noroeste 0 927.4 -- 42
2020-06-20 14:00:00 22.7 10 Noroeste 23 Noroeste 0 927.3 -- 46
2020-06-20 13:00:00 22.5 9 Oeste 22 Noroeste 0 927.2 -- 50
2020-06-20 12:00:00 20.6 4 Este 13 Sudeste 0 927.2 -- 49
2020-06-20 11:00:00 18.8 5 Este 10 Este 0 927.1 -- 61
2020-06-20 10:00:00 16.5 4 Sudeste 11 Sudeste 0 927.2 -- 67
2020-06-20 09:00:00 13.6 5 Noroeste 9 Oeste 0 927 -- 74
2020-06-20 08:00:00 9.4 6 Noroeste 13 Noroeste 0 926.8 -- 88
2020-06-20 07:00:00 7.7 5 Noroeste 13 Noroeste 0 926.6 -- 90
2020-06-20 06:00:00 8.1 6 Noroeste 12 Oeste 0 926.5 -- 89
2020-06-20 05:00:00 8.7 5 Oeste 18 Oeste 0 926.5 -- 88
2020-06-20 04:00:00 9.2 8 Oeste 16 Oeste 0 926.5 -- 87
2020-06-20 03:00:00 9.2 6 Oeste 14 Noroeste 0 926.7 -- 86
2020-06-20 02:00:00 10.3 5 Noroeste 18 Oeste 0 926.8 -- 81
2020-06-20 01:00:00 11.4 8 Oeste 16 Oeste 0 926.8 -- 79
2020-06-20 00:00:00 13 7 Oeste 16 Oeste 0 926.9 -- 72
2020-06-19 23:00:00 14.6 7 Oeste 20 Oeste 0 926.6 -- 68
2020-06-19 22:00:00 16.4 7 Oeste 19 Oeste 0 925.6 -- 66
2020-06-19 21:00:00 18.3 6 Noroeste 28 Oeste 0 925.2 -- 58
2020-06-19 20:00:00 20.1 9 Oeste 25 Oeste 0 924.7 -- 50
2020-06-19 19:00:00 22.9 10 Oeste 27 Oeste 0 924.6 -- 37
2020-06-19 18:00:00 22.6 11 Oeste 30 Oeste 0 924.5 -- 31
2020-06-19 17:00:00 22.5 12 Oeste 28 Oeste 0 924.4 -- 36
2020-06-19 16:00:00 21.9 11 Oeste 31 Noroeste 0 924.3 -- 46
2020-06-19 15:00:00 21.7 10 Noroeste 25 Oeste 0 924.2 -- 40
2020-06-19 14:00:00 20.8 8 Oeste 21 Oeste 0 924.3 -- 41
2020-06-19 13:00:00 20.3 6 Oeste 16 Oeste 0 924.3 -- 43
2020-06-19 12:00:00 18.8 4 Nordeste 16 Nordeste 0 924.2 -- 53
2020-06-19 11:00:00 16.2 6 Nordeste 14 Este 0 924.1 -- 62
2020-06-19 10:00:00 14.8 5 Este 10 Este 0 924 -- 68
2020-06-19 09:00:00 12.2 3 Nordeste 11 Oeste 0 923.9 -- 77
2020-06-19 08:00:00 8.2 5 Noroeste 14 Noroeste 0 923.2 -- 90
2020-06-19 07:00:00 6.6 6 Noroeste 17 Oeste 0 923 -- 91
2020-06-19 06:00:00 7.3 8 Oeste 17 Oeste 0 922.7 -- 91
2020-06-19 05:00:00 7.9 9 Oeste 19 Oeste 0 922.7 -- 90
2020-06-19 04:00:00 8.4 10 Oeste 19 Oeste 0 922.7 -- 90
2020-06-19 03:00:00 9.1 9 Oeste 17 Oeste 0 922.7 -- 88
2020-06-19 02:00:00 10.2 9 Oeste 21 Oeste 0 923 -- 83
2020-06-19 01:00:00 11 9 Oeste 17 Oeste 0 923.2 -- 82
2020-06-19 00:00:00 11.5 5 Sudoeste 13 Sudoeste 0 923 -- 82
2020-06-18 23:00:00 12.3 6 Sudoeste 15 Oeste 0 922.5 -- 74
2020-06-18 22:00:00 14.1 5 Sudoeste 15 Oeste 0 921.8 -- 64
2020-06-18 21:00:00 15.9 7 Oeste 23 Noroeste 0 921.2 -- 55
2020-06-18 20:00:00 17.7 10 Oeste 24 Oeste 0 920.9 -- 48
2020-06-18 19:00:00 19.9 13 Noroeste 33 Noroeste 0 920.6 -- 42
2020-06-18 18:00:00 21.2 10 Noroeste 27 Oeste 0 920.4 -- 41
2020-06-18 17:00:00 20.7 11 Oeste 28 Noroeste 0 920.6 -- 40
2020-06-18 16:00:00 20.1 10 Noroeste 33 Noroeste 0 920.8 -- 45
2020-06-18 15:00:00 19.8 12 Noroeste 29 Oeste 0 920.7 -- 49
2020-06-18 14:00:00 19.8 9 Oeste 27 Noroeste 0 920.7 -- 50
2020-06-18 13:00:00 19.1 8 Oeste 20 Oeste 0 920.9 -- 48
2020-06-18 12:00:00 17.2 5 Oeste 17 Oeste 0 920.8 -- 53
2020-06-18 11:00:00 16.5 4 Oeste 12 Sur 0 920.6 -- 56
2020-06-18 10:00:00 14.4 4 Norte 10 Noroeste 0 920.7 -- 60
2020-06-18 09:00:00 12.3 3 Este 9 Noroeste 0 920.3 -- 75
2020-06-18 08:00:00 9 3 Nordeste 6 Noroeste 0 920.2 -- 89
2020-06-18 07:00:00 8 4 Oeste 6 Oeste 0 920 -- 87
2020-06-18 06:00:00 9.5 4 Oeste 9 Oeste 0 920.3 -- 86
2020-06-18 05:00:00 9.7 4 Oeste 12 Oeste 0 920.5 -- 88
2020-06-18 04:00:00 9.9 8 Oeste 20 Oeste 0 920.9 -- 88
2020-06-18 03:00:00 9.7 8 Oeste 17 Oeste 0 920.9 -- 91
2020-06-18 02:00:00 9.2 8 Oeste 15 Oeste 0 921 -- 89
2020-06-18 01:00:00 9.4 7 Oeste 16 Sudoeste 0 921.4 -- 87
2020-06-18 00:00:00 9.9 6 Oeste 15 Oeste 0 921.8 -- 85
2020-06-17 23:00:00 11.3 6 Oeste 22 Noroeste 0 921.8 -- 80
2020-06-17 22:00:00 12.4 6 Oeste 17 Oeste 0 921.2 -- 79
2020-06-17 21:00:00 13.2 7 Oeste 21 Oeste 0 921.1 -- 72
2020-06-17 20:00:00 14.6 7 Oeste 28 Oeste 0 921.1 -- 64
2020-06-17 19:00:00 16 8 Oeste 24 Oeste 0 921.4 -- 62
2020-06-17 18:00:00 18 10 Oeste 30 Oeste 0 921.5 -- 52
2020-06-17 17:00:00 16.9 11 Oeste 31 Oeste 0 921.9 -- 56
2020-06-17 16:00:00 18 12 Oeste 27 Oeste 0 922.1 -- 51
2020-06-17 15:00:00 18.2 10 Oeste 25 Noroeste 0 922.3 -- 57
2020-06-17 14:00:00 16.8 7 Noroeste 21 Noroeste 0 922.5 -- 55
2020-06-17 13:00:00 16.6 9 Noroeste 15 Norte 0 922.9 -- 59
2020-06-17 12:00:00 14.3 5 Noroeste 15 Oeste 0 923 -- 66
2020-06-17 11:00:00 13.5 6 Oeste 14 Oeste 0 923.3 -- 66
2020-06-17 10:00:00 11.3 5 Noroeste 10 Norte 0 923.4 -- 79
2020-06-17 09:00:00 10.3 3 Oeste 11 Oeste 0 923.4 -- 85
2020-06-17 08:00:00 9.2 5 Noroeste 17 Oeste 0 923.3 -- 89
2020-06-17 07:00:00 9.1 7 Oeste 15 Oeste 0 923 -- 89
2020-06-17 06:00:00 9.1 8 Oeste 16 Oeste 0 922.9 -- 90
2020-06-17 05:00:00 9.7 4 Oeste 12 Oeste 0 923.2 -- 88
2020-06-17 04:00:00 9.8 4 Noroeste 14 Oeste 0 923.7 -- 88
2020-06-17 03:00:00 10 6 Oeste 18 Oeste 0 924 -- 89
2020-06-17 02:00:00 10.3 7 Oeste 18 Noroeste 0 924.4 -- 87
2020-06-17 01:00:00 10.8 5 Noroeste 19 Oeste 0 924.9 -- 89
2020-06-17 00:00:00 10.9 9 Oeste 21 Oeste 0 925.1 -- 87
2020-06-16 23:00:00 11.1 6 Oeste 24 Noroeste 0 925 -- 86
2020-06-16 22:00:00 11.8 8 Oeste 20 Oeste 0 924.5 -- 84
2020-06-16 21:00:00 12.7 4 Noroeste 20 Noroeste 0 924.5 -- 80
2020-06-16 20:00:00 13.2 7 Noroeste 21 Noroeste 0 924.1 -- 77
2020-06-16 19:00:00 15.1 11 Oeste 21 Oeste 0 924 -- 66
2020-06-16 18:00:00 15.8 10 Noroeste 28 Oeste 0 924.3 -- 62
2020-06-16 17:00:00 17.6 12 Oeste 32 Oeste 0 924.5 -- 57
2020-06-16 16:00:00 15.9 13 Oeste 30 Oeste 0 924.7 -- 64
2020-06-16 15:00:00 14.5 13 Oeste 33 Oeste 0 925 -- 73
2020-06-16 14:00:00 14 6 Oeste 32 Oeste 0 924.9 -- 84
2020-06-16 13:00:00 15.9 14 Oeste 41 Oeste 0 924.8 -- 70
2020-06-16 12:00:00 15.6 14 Oeste 31 Oeste 0 924.5 -- 72
2020-06-16 11:00:00 13.8 10 Oeste 25 Oeste 0 924.6 -- 83
2020-06-16 10:00:00 12.8 10 Oeste 22 Oeste 0 924.6 -- 81
2020-06-16 09:00:00 12.3 6 Oeste 16 Oeste 0 924.6 -- 83
2020-06-16 08:00:00 11.3 4 Norte 15 Oeste 0 924.5 -- 86
2020-06-16 07:00:00 11 6 Oeste 16 Oeste 0 924.5 -- 84
2020-06-16 06:00:00 10.9 2 Sudeste 17 Sudoeste 0 924.6 -- 85
2020-06-16 05:00:00 10.7 2 Sudoeste 10 Oeste 0 924.8 -- 87
2020-06-16 04:00:00 10.6 4 Oeste 14 Oeste 0 925.3 -- 88
2020-06-16 03:00:00 10.3 8 Oeste 17 Oeste 0 925.6 -- 88
2020-06-16 02:00:00 11.2 5 Oeste 17 Oeste 0 926.1 -- 88
2020-06-16 01:00:00 11.3 6 Oeste 14 Sudoeste 0 926.6 -- 87
2020-06-16 00:00:00 10.8 6 Oeste 11 Noroeste 0 926.7 -- 88
2020-06-15 23:00:00 11.5 6 Oeste 11 Oeste 0 927 -- 85
2020-06-15 22:00:00 12.4 4 Sudoeste 15 Oeste 0 926.7 -- 82
2020-06-15 21:00:00 13.5 6 Oeste 17 Oeste 0 926.9 -- 77
2020-06-15 20:00:00 13.8 8 Oeste 21 Noroeste 0 926.9 -- 74
2020-06-15 19:00:00 15.2 8 Noroeste 28 Oeste 0 926.5 -- 67
2020-06-15 18:00:00 16.1 8 Oeste 24 Noroeste 0 926.8 -- 64
2020-06-15 17:00:00 15.9 9 Noroeste 22 Noroeste 0 927 -- 65
2020-06-15 16:00:00 15.8 7 Oeste 23 Oeste 0 927.2 -- 64
2020-06-15 15:00:00 15.8 9 Oeste 23 Oeste 0 927.1 -- 59
2020-06-15 14:00:00 14.7 7 Noroeste 21 Oeste 0 927.5 -- 70
2020-06-15 13:00:00 14.2 6 Oeste 15 Noroeste 0 927.5 -- 73
2020-06-15 12:00:00 13.9 6 Noroeste 16 Oeste 0 927.2 -- 72
2020-06-15 11:00:00 13.3 5 Noroeste 14 Noroeste 0 927 -- 74
2020-06-15 10:00:00 13.4 6 Noroeste 21 Sudoeste 0 927 -- 74
2020-06-15 09:00:00 12.9 10 Oeste 20 Oeste 0 926.7 -- 76
2020-06-15 08:00:00 10.5 7 Oeste 20 Oeste 0 926.6 -- 86
2020-06-15 07:00:00 10.2 5 Oeste 14 Sudoeste 0 926.3 -- 88
2020-06-15 06:00:00 10.1 5 Oeste 14 Oeste 0 926 -- 90
2020-06-15 05:00:00 10.1 3 Oeste 5 Oeste 0 926 -- 89
2020-06-15 04:00:00 10 2 Noroeste 12 Oeste 0 926.2 -- 89
2020-06-15 03:00:00 9.9 6 Oeste 15 Oeste 0 926.3 -- 88
2020-06-15 02:00:00 9.3 7 Oeste 14 Oeste 0 926.6 -- 91
2020-06-15 01:00:00 10 4 Noroeste 11 Sudoeste 0 926.7 -- 86
2020-06-15 00:00:00 10.9 6 Oeste 14 Oeste 0 926.8 -- 84
2020-06-14 23:00:00 11.4 5 Noroeste 9 Noroeste 0 926.7 -- 86
2020-06-14 22:00:00 11.9 3 Noroeste 9 Sudoeste 0 926.5 -- 84
2020-06-14 21:00:00 12.5 4 Oeste 15 Sudoeste 0 926.4 -- 80
2020-06-14 20:00:00 12.6 6 Oeste 20 Oeste 0 926.1 -- 82
2020-06-14 19:00:00 12.8 10 Oeste 24 Sudoeste 0 925.8 -- 77
2020-06-14 18:00:00 13.3 10 Oeste 26 Oeste 0 925.6 -- 73
2020-06-14 17:00:00 16.1 11 Sudoeste 26 Oeste 0 925.4 -- 61
2020-06-14 16:00:00 15.7 11 Oeste 24 Oeste 0 925.5 -- 60
2020-06-14 15:00:00 15.9 11 Sudoeste 26 Oeste 0 925.4 -- 61
2020-06-14 14:00:00 14.9 9 Oeste 27 Oeste 0 925.7 -- 69
2020-06-14 13:00:00 14.6 10 Sudoeste 26 Sudoeste 0 925.6 -- 67
2020-06-14 12:00:00 13 8 Sudoeste 23 Oeste 0 925.2 -- 75
2020-06-14 11:00:00 12 4 Oeste 11 Oeste 0 925 -- 72
2020-06-14 10:00:00 11.2 4 Noroeste 10 Noroeste 0 924.8 -- 82
2020-06-14 09:00:00 9.2 3 Nordeste 9 Noroeste 0 923.9 -- 79
2020-06-14 08:00:00 8.2 0 Calma 5 Sudeste 0 923.8 -- 88
2020-06-14 07:00:00 6.8 0 Calma 14 Noroeste 0 923.3 -- 90
2020-06-14 06:00:00 6.5 6 Noroeste 11 Noroeste 0 923 -- 89
2020-06-14 05:00:00 6.1 4 Oeste 10 Oeste 0 923 -- 88
2020-06-14 04:00:00 6.2 4 Oeste 17 Oeste 0 923.1 -- 87
2020-06-14 03:00:00 6.9 8 Oeste 19 Oeste 0 923.1 -- 88
2020-06-14 02:00:00 7.3 8 Noroeste 23 Noroeste 0 923.7 -- 88
2020-06-14 01:00:00 8.2 8 Noroeste 22 Oeste 0 923.7 -- 88
2020-06-14 00:00:00 8.8 6 Noroeste 18 Oeste 0 923.5 -- 84
2020-06-13 23:00:00 9.8 7 Oeste 21 Oeste 0 923.5 -- 82
2020-06-13 22:00:00 10.1 10 Oeste 28 Oeste 0 922.7 -- 77
2020-06-13 21:00:00 11.3 14 Oeste 33 Oeste 0 922.2 -- 72
2020-06-13 20:00:00 12.5 12 Oeste 30 Oeste 0 921.9 -- 72
2020-06-13 19:00:00 12.9 8 Oeste 25 Oeste 0 921.7 -- 73
2020-06-13 18:00:00 15 10 Oeste 31 Sudoeste 0 921.2 -- 62
2020-06-13 17:00:00 15.6 15 Oeste 40 Sudoeste 0 920.8 -- 58
2020-06-13 16:00:00 15.8 16 Oeste 38 Sudoeste 0 920.5 -- 63
2020-06-13 15:00:00 14.6 12 Oeste 35 Oeste 0 920.5 -- 72
2020-06-13 14:00:00 12.5 11 Oeste 41 Sudoeste 0.2 920.6 -- 76
2020-06-13 13:00:00 13.6 13 Oeste 36 Oeste 0 919.8 -- 77
2020-06-13 12:00:00 13.7 15 Oeste 35 Oeste 0 919.3 -- 75
2020-06-13 11:00:00 12.7 14 Oeste 36 Oeste 0.2 918.8 -- 76
2020-06-13 10:00:00 10.7 9 Oeste 28 Sudoeste 0 918.5 -- 83
2020-06-13 09:00:00 9.9 8 Oeste 24 Oeste 0 918 -- 81
2020-06-13 08:00:00 9.1 10 Oeste 36 Sudoeste 0 917.3 -- 83
2020-06-13 07:00:00 8.6 14 Oeste 38 Oeste 0 917 -- 85
2020-06-13 06:00:00 8.6 12 Oeste 28 Sudoeste 0 916.6 -- 88
2020-06-13 05:00:00 8.6 11 Oeste 27 Oeste 0 916.3 -- 88
2020-06-13 04:00:00 8.6 13 Oeste 26 Sudoeste 0 915.9 -- 88
2020-06-13 03:00:00 8.8 12 Oeste 27 Oeste 0 916 -- 89
2020-06-13 02:00:00 8.9 9 Oeste 24 Oeste 0 915.7 -- 90
2020-06-13 01:00:00 8.7 13 Oeste 29 Oeste 0 915.5 -- 91
2020-06-13 00:00:00 9.1 12 Oeste 32 Oeste 0 915.3 -- 90
2020-06-12 23:00:00 9.4 15 Oeste 37 Oeste 0 914.6 -- 92
2020-06-12 22:00:00 9.6 15 Oeste 36 Oeste 0 913.5 -- 92
2020-06-12 21:00:00 9.9 12 Oeste 33 Oeste 0.8 912.7 -- 92
2020-06-12 20:00:00 10.2 8 Oeste 27 Oeste 1.2 912.2 -- 93
2020-06-12 19:00:00 10.2 7 Oeste 19 Oeste 2 911.9 -- 93
2020-06-12 18:00:00 9 12 Oeste 36 Sudoeste 7 911.7 -- 89
2020-06-12 17:00:00 11.9 17 Oeste 42 Sudoeste 0.4 910.8 -- 85
2020-06-12 16:00:00 14.3 19 Oeste 43 Oeste 0 910.3 -- 77
2020-06-12 15:00:00 11.6 17 Oeste 36 Oeste 0.2 910.3 -- 84
2020-06-12 14:00:00 9.9 11 Oeste 25 Oeste 3.4 910.2 -- 93
2020-06-12 13:00:00 9.4 15 Oeste 40 Oeste 4.2 910.1 -- 93
2020-06-12 12:00:00 9.8 15 Oeste 42 Sudoeste 2.2 909.4 -- 91
2020-06-12 11:00:00 9.8 17 Oeste 35 Sudoeste 0.4 909.1 -- 90
2020-06-12 10:00:00 8.4 12 Oeste 32 Sudoeste 0 909.4 -- 86
2020-06-12 09:00:00 8.4 13 Oeste 28 Oeste 0 909.5 -- 85
2020-06-12 08:00:00 7.6 9 Oeste 25 Oeste 0 909.4 -- 92
2020-06-12 07:00:00 7.4 9 Oeste 32 Oeste 0 909.5 -- 93
2020-06-12 06:00:00 7.5 13 Oeste 41 Oeste 1.6 909 -- 93
2020-06-12 05:00:00 8.3 13 Oeste 38 Oeste 1.2 908.6 -- 94
2020-06-12 04:00:00 8.3 17 Oeste 44 Oeste 0.4 908.5 -- 93
2020-06-12 03:00:00 8.5 19 Oeste 46 Oeste 0.6 908.7 -- 93
2020-06-12 02:00:00 8.4 22 Oeste 53 Sudoeste 0.4 909 -- 92
2020-06-12 01:00:00 7.9 20 Oeste 55 Oeste 0.4 909.5 -- 91
2020-06-12 00:00:00 7.8 24 Oeste 47 Oeste 0 909.8 -- 88
2020-06-11 23:00:00 7.7 19 Oeste 42 Oeste 0 910.8 -- 88
2020-06-11 22:00:00 7.9 12 Oeste 36 Oeste 0.2 911.3 -- 88
2020-06-11 21:00:00 8.1 13 Oeste 42 Oeste 0.2 911.7 -- 86
2020-06-11 20:00:00 8.8 17 Oeste 49 Noroeste 0.6 911.6 -- 87
2020-06-11 19:00:00 10.7 14 Oeste 32 Oeste 0.2 912 -- 78
2020-06-11 18:00:00 11.1 14 Noroeste 38 Oeste 0 912.2 -- 71
2020-06-11 17:00:00 11.3 14 Oeste 42 Oeste 0 912.5 -- 70
2020-06-11 16:00:00 14.4 13 Oeste 39 Oeste 0 912.5 -- 60
2020-06-11 15:00:00 12.3 13 Noroeste 36 Oeste 0 913.2 -- 71
2020-06-11 14:00:00 11.6 13 Oeste 35 Oeste 0.2 913.7 -- 83
2020-06-11 13:00:00 11.2 15 Noroeste 41 Noroeste 0 913.9 -- 83
2020-06-11 12:00:00 14.9 15 Oeste 43 Oeste 0 913.6 -- 80
2020-06-11 11:00:00 12.4 15 Oeste 37 Oeste 0.8 913.9 -- 90
2020-06-11 10:00:00 11.9 10 Oeste 28 Oeste 0.4 914.3 -- 90
2020-06-11 09:00:00 11.5 13 Oeste 39 Oeste 0 914.7 -- 88
2020-06-11 08:00:00 10.8 9 Oeste 24 Oeste 0 915.3 -- 89
2020-06-11 07:00:00 10.2 9 Oeste 22 Oeste 0 916 -- 89
2020-06-11 06:00:00 10.3 9 Oeste 23 Oeste 0 916.3 -- 82
2020-06-11 05:00:00 10.5 9 Oeste 22 Oeste 0 917.2 -- 68
2020-06-11 04:00:00 9.8 10 Oeste 22 Oeste 0 917.7 -- 68
2020-06-11 03:00:00 10.5 6 Noroeste 17 Noroeste 0 918.5 -- 87
2020-06-11 02:00:00 11.4 5 Noroeste 16 Oeste 0 919.2 -- 86
2020-06-11 01:00:00 11.8 8 Oeste 22 Oeste 0 919.6 -- 84
2020-06-11 00:00:00 12.6 12 Oeste 27 Noroeste 0 919.8 -- 82
2020-06-10 23:00:00 13.6 10 Noroeste 28 Noroeste 0 920 -- 76
2020-06-10 22:00:00 15.5 13 Noroeste 30 Oeste 0 919.6 -- 65
2020-06-10 21:00:00 17.2 6 Noroeste 26 Noroeste 0 919.5 -- 53
2020-06-10 20:00:00 18.6 10 Oeste 26 Noroeste 0 919.5 -- 44
2020-06-10 19:00:00 20.8 12 Noroeste 30 Oeste 0 919.7 -- 40
2020-06-10 18:00:00 21.5 11 Noroeste 35 Oeste 0 919.9 -- 37
2020-06-10 17:00:00 21.4 14 Noroeste 30 Oeste 0 920.4 -- 38
2020-06-10 16:00:00 20.9 13 Noroeste 31 Oeste 0 920.6 -- 45
2020-06-10 15:00:00 20.8 12 Oeste 28 Oeste 0 920.8 -- 46
2020-06-10 14:00:00 20.6 9 Noroeste 23 Oeste 0 921.5 -- 45
2020-06-10 13:00:00 19.9 7 Noroeste 18 Norte 0 921.8 -- 50
2020-06-10 12:00:00 17.9 7 Nordeste 20 Nordeste 0 922.1 -- 55
2020-06-10 11:00:00 15.7 6 Este 15 Este 0 922.3 -- 57
2020-06-10 10:00:00 13.6 8 Este 13 Este 0 922.7 -- 66
2020-06-10 09:00:00 11.3 3 Este 9 Noroeste 0 922.8 -- 77
2020-06-10 08:00:00 6.9 5 Noroeste 11 Noroeste 0 922.7 -- 89
2020-06-10 07:00:00 5.2 8 Noroeste 13 Noroeste 0 922.7 -- 90
2020-06-10 06:00:00 5.2 5 Noroeste 10 Noroeste 0 922.7 -- 91
2020-06-10 05:00:00 5.6 6 Noroeste 11 Noroeste 0 922.7 -- 90
2020-06-10 04:00:00 6.2 7 Noroeste 11 Noroeste 0 922.9 -- 88
2020-06-10 03:00:00 7.1 5 Oeste 19 Noroeste 0 923.3 -- 88
2020-06-10 02:00:00 8.1 8 Oeste 23 Oeste 0 923.6 -- 86
2020-06-10 01:00:00 9 10 Oeste 23 Oeste 0 923.6 -- 84
2020-06-10 00:00:00 10 10 Oeste 22 Oeste 0 924 -- 80
2020-06-09 23:00:00 11.1 10 Oeste 20 Oeste 0 923.7 -- 75
2020-06-09 22:00:00 12.5 9 Oeste 25 Noroeste 0 923.1 -- 69
2020-06-09 21:00:00 14.2 10 Noroeste 27 Oeste 0 922.9 -- 61
2020-06-09 20:00:00 16.3 11 Noroeste 26 Oeste 0 922.6 -- 52
2020-06-09 19:00:00 19.5 10 Noroeste 28 Oeste 0 922.6 -- 39
2020-06-09 18:00:00 20.3 9 Noroeste 25 Oeste 0 922.6 -- 35
2020-06-09 17:00:00 20.8 10 Oeste 26 Noroeste 0 922.8 -- 34
2020-06-09 16:00:00 19.4 9 Noroeste 25 Oeste 0 923.3 -- 40
2020-06-09 15:00:00 19.1 7 Noroeste 25 Noroeste 0 923.5 -- 40
2020-06-09 14:00:00 18.4 11 Noroeste 24 Noroeste 0 924 -- 44
2020-06-09 13:00:00 17.4 4 Oeste 15 Norte 0 924.5 -- 47
2020-06-09 12:00:00 15.9 6 Norte 19 Norte 0 924.5 -- 51
2020-06-09 11:00:00 13.3 7 Este 16 Este 0 924.7 -- 59
2020-06-09 10:00:00 11.8 6 Este 12 Este 0 924.8 -- 71
2020-06-09 09:00:00 9.1 5 Noroeste 14 Noroeste 0 924.8 -- 80
2020-06-09 08:00:00 5.5 7 Oeste 18 Oeste 0 924.8 -- 92
2020-06-09 07:00:00 4.1 7 Oeste 18 Noroeste 0 924.2 -- 93
2020-06-09 06:00:00 4.3 3 Oeste 14 Noroeste 0 923.8 -- 90
2020-06-09 05:00:00 4.5 8 Noroeste 17 Noroeste 0 923.9 -- 92
2020-06-09 04:00:00 5.6 8 Noroeste 18 Noroeste 0 924.2 -- 91
2020-06-09 03:00:00 6.6 9 Oeste 19 Noroeste 0 924.4 -- 90
2020-06-09 02:00:00 6.9 9 Oeste 20 Oeste 0 924.7 -- 88
2020-06-09 01:00:00 8.1 10 Oeste 25 Oeste 0 924.7 -- 84
2020-06-09 00:00:00 9.3 8 Oeste 21 Oeste 0 924.7 -- 79
2020-06-08 23:00:00 10.1 9 Oeste 17 Oeste 0 924.4 -- 75
2020-06-08 22:00:00 12 9 Oeste 22 Oeste 0 923.8 -- 64
2020-06-08 21:00:00 13.9 8 Oeste 27 Oeste 0 923.2 -- 57
2020-06-08 20:00:00 15.6 10 Oeste 25 Noroeste 0 922.8 -- 53
2020-06-08 19:00:00 18.8 10 Noroeste 27 Noroeste 0 922.5 -- 42
2020-06-08 18:00:00 18.7 11 Noroeste 30 Oeste 0 922.8 -- 44
2020-06-08 17:00:00 18.5 11 Noroeste 28 Norte 0 922.9 -- 45
2020-06-08 16:00:00 16.7 12 Norte 30 Noroeste 0 923.1 -- 52
2020-06-08 15:00:00 17 9 Noroeste 25 Oeste 0 923.3 -- 51
2020-06-08 14:00:00 16.7 9 Noroeste 25 Oeste 0 923.3 -- 53
2020-06-08 13:00:00 16.2 10 Norte 24 Noroeste 0 923.4 -- 50
2020-06-08 12:00:00 15.9 9 Norte 23 Norte 0 923.1 -- 48
2020-06-08 11:00:00 14.8 5 Norte 16 Norte 0 922.9 -- 56
2020-06-08 10:00:00 12.9 6 Norte 14 Norte 0 922.6 -- 59
2020-06-08 09:00:00 9.9 6 Oeste 18 Oeste 0 922.3 -- 70
2020-06-08 08:00:00 6.5 9 Noroeste 18 Noroeste 0 921.9 -- 86
2020-06-08 07:00:00 5.4 4 Oeste 13 Oeste 0 921.5 -- 86
2020-06-08 06:00:00 5.6 8 Oeste 15 Oeste 0 921.1 -- 88
2020-06-08 05:00:00 5.8 7 Noroeste 14 Noroeste 0 920.7 -- 87
2020-06-08 04:00:00 6.7 6 Oeste 18 Oeste 0 920.7 -- 83
2020-06-08 03:00:00 6.4 8 Oeste 19 Oeste 0 920.8 -- 85
2020-06-08 02:00:00 5.9 9 Oeste 21 Oeste 0 920.7 -- 85
2020-06-08 01:00:00 6.8 10 Oeste 21 Oeste 0 920.5 -- 82
2020-06-08 00:00:00 7.7 9 Oeste 22 Oeste 0 920.5 -- 77
2020-06-07 23:00:00 8.2 9 Oeste 24 Oeste 0 920 -- 75
2020-06-07 22:00:00 9.8 9 Oeste 32 Oeste 0 919.5 -- 67
2020-06-07 21:00:00 11.5 9 Noroeste 31 Noroeste 0 919.1 -- 59
2020-06-07 20:00:00 12.9 12 Noroeste 38 Oeste 0 918.6 -- 52
2020-06-07 19:00:00 15.9 15 Noroeste 36 Noroeste 0 918.2 -- 45
2020-06-07 18:00:00 16.5 12 Noroeste 33 Noroeste 0 918 -- 44
2020-06-07 17:00:00 16.6 12 Noroeste 29 Norte 0 918 -- 44
2020-06-07 16:00:00 16.3 12 Noroeste 33 Oeste 0 918 -- 45
2020-06-07 15:00:00 15 10 Noroeste 29 Oeste 0 918 -- 49
2020-06-07 14:00:00 16 13 Oeste 30 Oeste 0 917.9 -- 54
2020-06-07 13:00:00 13.2 10 Oeste 24 Oeste 0 918.1 -- 68
2020-06-07 12:00:00 10.7 8 Oeste 21 Oeste 0 917.8 -- 80
2020-06-07 11:00:00 9.9 8 Oeste 23 Oeste 0 917.5 -- 87
2020-06-07 10:00:00 9.5 9 Oeste 23 Oeste 0 917.1 -- 90
2020-06-07 09:00:00 9.7 7 Oeste 20 Oeste 0 916.6 -- 92
2020-06-07 08:00:00 9.3 9 Noroeste 22 Noroeste 0 916.1 -- 94
2020-06-07 07:00:00 9.6 6 Oeste 21 Oeste 0 915.6 -- 93
2020-06-07 06:00:00 9.8 7 Oeste 22 Oeste 0 915.4 -- 94
2020-06-07 05:00:00 10.2 8 Oeste 22 Oeste 0 915.4 -- 94
2020-06-07 04:00:00 11.1 8 Oeste 21 Oeste 0 915.4 -- 92
2020-06-07 03:00:00 11.8 6 Oeste 18 Oeste 0 915.3 -- 86
2020-06-07 02:00:00 12 5 Oeste 19 Oeste 0 915.7 -- 87
2020-06-07 01:00:00 12.1 5 Oeste 15 Oeste 0 915.7 -- 88
2020-06-07 00:00:00 12.8 9 Oeste 19 Oeste 0 915.9 -- 83
2020-06-06 23:00:00 13.4 4 Oeste 13 Oeste 0 916.2 -- 80
2020-06-06 22:00:00 13.8 7 Noroeste 18 Noroeste 0 915.8 -- 77
2020-06-06 21:00:00 14.6 6 Oeste 21 Noroeste 0 915.7 -- 74
2020-06-06 20:00:00 15.3 9 Noroeste 29 Oeste 0 915.2 -- 70
2020-06-06 19:00:00 16.7 12 Noroeste 32 Oeste 0 915.1 -- 65
2020-06-06 18:00:00 18.6 13 Oeste 30 Oeste 0 915 -- 58
2020-06-06 17:00:00 19.8 14 Oeste 35 Oeste 0 915 -- 55
2020-06-06 16:00:00 18.2 15 Noroeste 33 Noroeste 0 915.2 -- 63
2020-06-06 15:00:00 17.3 14 Noroeste 31 Oeste 0 915.7 -- 64
2020-06-06 14:00:00 16.8 14 Oeste 31 Oeste 0 916 -- 69
2020-06-06 13:00:00 15.4 13 Noroeste 28 Noroeste 0 916.5 -- 77
2020-06-06 12:00:00 13.5 11 Oeste 22 Noroeste 0 916.7 -- 81
2020-06-06 11:00:00 12.9 7 Noroeste 16 Noroeste 0 916.9 -- 86
2020-06-06 10:00:00 12.4 5 Noroeste 10 Norte 0 917.1 -- 90
2020-06-06 09:00:00 11.7 3 Este 10 Oeste 0 917 -- 90
2020-06-06 08:00:00 10.8 5 Noroeste 13 Oeste 0 916.9 -- 94
2020-06-06 07:00:00 9.7 5 Oeste 15 Oeste 0 917 -- 94
2020-06-06 06:00:00 9.6 8 Noroeste 23 Noroeste 0 916.7 -- 94
2020-06-06 05:00:00 9.9 10 Noroeste 21 Noroeste 0 916.8 -- 93
2020-06-06 04:00:00 10.4 4 Oeste 13 Oeste 0 917.1 -- 89
2020-06-06 03:00:00 10.9 8 Noroeste 15 Noroeste 0 917.8 -- 91
2020-06-06 02:00:00 11.5 6 Noroeste 14 Noroeste 0 918.2 -- 88
2020-06-06 01:00:00 12.4 6 Noroeste 22 Oeste 0 918.7 -- 86
2020-06-06 00:00:00 13.4 10 Noroeste 23 Noroeste 0 918.8 -- 84
2020-06-05 23:00:00 14.6 10 Oeste 21 Oeste 0 918.7 -- 77
2020-06-05 22:00:00 16.4 8 Sudoeste 20 Oeste 0 918.3 -- 68
2020-06-05 21:00:00 18.6 6 Noroeste 24 Noroeste 0 917.8 -- 59
2020-06-05 20:00:00 20.2 9 Oeste 28 Oeste 0 917.8 -- 54
2020-06-05 19:00:00 23 12 Oeste 29 Oeste 0 917.6 -- 42
2020-06-05 18:00:00 23 11 Oeste 30 Oeste 0 917.7 -- 43
2020-06-05 17:00:00 22.6 12 Oeste 29 Oeste 0 918.2 -- 38
2020-06-05 16:00:00 22.2 12 Oeste 28 Oeste 0 918.5 -- 42
2020-06-05 15:00:00 22.1 11 Oeste 25 Oeste 0 918.7 -- 46
2020-06-05 14:00:00 21.5 7 Oeste 20 Oeste 0 919 -- 41
2020-06-05 13:00:00 19.7 5 Noroeste 12 Noroeste 0 919.2 -- 40
2020-06-05 12:00:00 17.5 5 Norte 16 Sudeste 0 919.5 -- 59
2020-06-05 11:00:00 15.4 5 Este 14 Este 0 919.4 -- 63
2020-06-05 10:00:00 13.5 3 Oeste 8 Sudoeste 0 919.4 -- 68
2020-06-05 09:00:00 9.7 5 Norte 8 Noroeste 0 919.4 -- 81
2020-06-05 08:00:00 6.4 3 Noroeste 8 Noroeste 0 919.1 -- 92
2020-06-05 07:00:00 5.2 4 Noroeste 11 Oeste 0 919 -- 91
2020-06-05 06:00:00 5.7 6 Noroeste 15 Oeste 0 919 -- 91
2020-06-05 05:00:00 6.4 4 Sudoeste 16 Oeste 0 919.1 -- 90
2020-06-05 04:00:00 6.6 4 Oeste 13 Oeste 0 919.3 -- 90
2020-06-05 03:00:00 7.7 4 Oeste 16 Noroeste 0 919.7 -- 90
2020-06-05 02:00:00 8.2 9 Noroeste 18 Oeste 0 919.9 -- 87
2020-06-05 01:00:00 8.8 7 Oeste 19 Oeste 0 919.7 -- 88
2020-06-05 00:00:00 9.1 6 Oeste 19 Oeste 0 919.3 -- 87
2020-06-04 23:00:00 9.8 7 Noroeste 16 Oeste 0 919.1 -- 85
2020-06-04 22:00:00 11.6 6 Oeste 27 Oeste 0 918.5 -- 77
2020-06-04 21:00:00 13.1 8 Oeste 23 Oeste 0 917.9 -- 72
2020-06-04 20:00:00 14.5 9 Noroeste 30 Norte 0 917.3 -- 67
2020-06-04 19:00:00 17.2 11 Noroeste 26 Noroeste 0 916.9 -- 57
2020-06-04 18:00:00 17.1 10 Noroeste 27 Oeste 0 917 -- 53
2020-06-04 17:00:00 17.7 10 Oeste 29 Noroeste 0 916.8 -- 55
2020-06-04 16:00:00 16.1 9 Noroeste 25 Norte 0 916.7 -- 57
2020-06-04 15:00:00 15.6 9 Noroeste 22 Norte 0 916.7 -- 60
2020-06-04 14:00:00 14.2 9 Noroeste 29 Noroeste 0 916.5 -- 65
2020-06-04 13:00:00 14.8 8 Oeste 26 Noroeste 0 916 -- 72
2020-06-04 12:00:00 12.1 10 Noroeste 27 Noroeste 0 915.6 -- 80
2020-06-04 11:00:00 13.2 8 Noroeste 26 Oeste 0 915.1 -- 73
2020-06-04 10:00:00 12 10 Noroeste 25 Noroeste 0.2 915 -- 82
2020-06-04 09:00:00 10.3 8 Oeste 18 Oeste 0 914.5 -- 90
2020-06-04 08:00:00 10.2 6 Oeste 14 Oeste 0 914.2 -- 91
2020-06-04 07:00:00 10 4 Sudoeste 11 Oeste 0 914 -- 90
2020-06-04 06:00:00 9.7 5 Oeste 15 Sudoeste 0 913.9 -- 91
2020-06-04 05:00:00 9.5 6 Oeste 12 Sudoeste 0 914 -- 91
2020-06-04 04:00:00 10.1 5 Sudoeste 15 Oeste 0 914.6 -- 90
2020-06-04 03:00:00 10.6 8 Oeste 22 Oeste 0 914.6 -- 87
2020-06-04 02:00:00 11.3 6 Oeste 16 Oeste 0 915.2 -- 87
2020-06-04 01:00:00 12.4 5 Oeste 18 Oeste 0 915.5 -- 88
2020-06-04 00:00:00 13.3 7 Oeste 18 Oeste 0 915.7 -- 89